Time;durP1;ratioP1;P1;durP2;ratioP2;P2;SDS_P1;SDS_P2;PMS_P1;PMS_P2;Temp;Humidity;BMP_temperature;BMP_pressure;BME280_temperature;BME280_humidity;BME280_pressure;Samples;Min_cycle;Max_cycle;Signal;HPM_P1;HPM_P2
2022/10/20 14:57:14;;;;;;;;;;;19.50;92.20;;;;;;5106304;28;19943;-81
2022/10/20 14:59:49;;;;;;;;;;;19.50;92.10;;;;;;5099985;28;20359;-81
2022/10/20 15:02:19;;;;;;;;;;;19.50;91.90;;;;;;5115017;28;19935;-81
2022/10/20 15:04:46;;;;;;;;;;;19.50;91.90;;;;;;5115555;28;19908;-81
2022/10/20 15:07:13;;;;;;;;;;;19.50;91.90;;;;;;5115143;28;20006;-80
2022/10/20 15:09:41;;;;;;;;;;;19.50;91.80;;;;;;5114986;28;19914;-81
2022/10/20 15:12:18;;;;;;;;;;;19.60;91.70;;;;;;5079868;28;20154;-81
2022/10/20 15:14:54;;;;;;;;;;;19.50;91.70;;;;;;5115238;28;19908;-80
2022/10/20 15:17:34;;;;;;;;;;;19.50;91.40;;;;;;5096963;28;20015;-81
2022/10/20 15:20:19;;;;;;;;;;;19.60;91.30;;;;;;5088567;28;20369;-81
2022/10/20 15:22:46;;;;;;;;;;;19.60;91.40;;;;;;5114724;28;19930;-81
2022/10/20 15:25:12;;;;;;;;;;;19.60;91.40;;;;;;5114953;28;20366;-81
2022/10/20 15:27:39;;;;;;;;;;;19.60;91.40;;;;;;5114866;28;19928;-81
2022/10/20 15:30:13;;;;;;;;;;;19.60;91.40;;;;;;5114490;28;19915;-81
2022/10/20 15:32:39;;;;;;;;;;;19.60;91.50;;;;;;5096757;28;19908;-81
2022/10/20 15:35:17;;;;;;;;;;;19.60;91.50;;;;;;5114397;28;19908;-81
2022/10/20 15:37:47;;;;;;;;;;;19.60;91.70;;;;;;5114503;28;20351;-81
2022/10/20 15:40:14;;;;;;;;;;;19.60;91.80;;;;;;5081961;28;20389;-80
2022/10/20 15:42:40;;;;;;;;;;;19.70;91.90;;;;;;5114691;28;20002;-81
2022/10/20 15:45:13;;;;;;;;;;;19.70;92.10;;;;;;5114381;28;20007;-81
2022/10/20 15:47:39;;;;;;;;;;;19.70;92.20;;;;;;5086788;28;20273;-81
2022/10/20 15:50:06;;;;;;;;;;;19.70;92.30;;;;;;5114416;28;19961;-81
2022/10/20 15:52:33;;;;;;;;;;;19.70;92.40;;;;;;5114064;28;19908;-81
2022/10/20 15:54:59;;;;;;;;;;;19.60;92.40;;;;;;5114446;28;19953;-81
2022/10/20 15:57:26;;;;;;;;;;;19.70;92.50;;;;;;5116695;27;19958;-81
2022/10/20 15:59:53;;;;;;;;;;;19.70;92.50;;;;;;5134649;27;19951;-80
2022/10/20 16:02:19;;;;;;;;;;;19.70;92.60;;;;;;5134251;27;19918;-81
2022/10/20 16:04:46;;;;;;;;;;;19.70;92.60;;;;;;5134595;27;19907;-81
2022/10/20 16:07:13;;;;;;;;;;;19.70;92.70;;;;;;5134201;27;19915;-81
2022/10/20 16:09:39;;;;;;;;;;;19.60;92.70;;;;;;5134152;27;20373;-81
2022/10/20 16:12:06;;;;;;;;;;;19.60;92.80;;;;;;5133866;27;19908;-81
2022/10/20 16:14:32;;;;;;;;;;;19.60;92.70;;;;;;5134466;27;19911;-81
2022/10/20 16:16:59;;;;;;;;;;;19.70;92.80;;;;;;5134505;27;19908;-80
2022/10/20 16:19:25;;;;;;;;;;;19.70;92.90;;;;;;5134157;27;20009;-80
2022/10/20 16:21:52;;;;;;;;;;;19.70;92.80;;;;;;5115909;27;19914;-81
2022/10/20 16:24:19;;;;;;;;;;;19.70;92.90;;;;;;5134348;27;19965;-81
2022/10/20 16:26:45;;;;;;;;;;;19.70;93.00;;;;;;5134018;27;20378;-81
2022/10/20 16:29:12;;;;;;;;;;;19.70;93.00;;;;;;5133981;27;19974;-81
2022/10/20 16:31:38;;;;;;;;;;;19.70;93.00;;;;;;5133921;27;19914;-81
2022/10/20 16:34:05;;;;;;;;;;;19.70;93.10;;;;;;5134077;27;19949;-81
2022/10/20 16:36:32;;;;;;;;;;;19.70;93.10;;;;;;5133888;27;19916;-81
2022/10/20 16:38:59;;;;;;;;;;;19.70;93.40;;;;;;5133830;27;19907;-81
2022/10/20 16:41:26;;;;;;;;;;;19.60;93.50;;;;;;5133749;27;19908;-81
2022/10/20 16:43:52;;;;;;;;;;;19.70;93.60;;;;;;5133600;27;19987;-81
2022/10/20 16:46:19;;;;;;;;;;;19.70;93.60;;;;;;5133677;27;19911;-81
2022/10/20 16:48:46;;;;;;;;;;;19.60;93.70;;;;;;5133363;27;20014;-81
2022/10/20 16:51:14;;;;;;;;;;;19.60;93.70;;;;;;5133845;27;19912;-81
2022/10/20 16:53:40;;;;;;;;;;;19.60;93.70;;;;;;5133762;27;20025;-81
2022/10/20 16:56:07;;;;;;;;;;;19.60;93.80;;;;;;5133476;27;19907;-81
2022/10/20 16:58:34;;;;;;;;;;;19.60;93.90;;;;;;5132940;27;19927;-81
2022/10/20 17:01:02;;;;;;;;;;;19.60;94.10;;;;;;5133260;27;19912;-81
2022/10/20 17:03:29;;;;;;;;;;;19.60;94.10;;;;;;5133478;27;19907;-81
2022/10/20 17:05:56;;;;;;;;;;;19.60;94.10;;;;;;5133349;27;19907;-81
2022/10/20 17:08:23;;;;;;;;;;;19.60;94.10;;;;;;5133882;27;20400;-81
2022/10/20 17:10:54;;;;;;;;;;;19.60;94.10;;;;;;5133547;27;19954;-81
2022/10/20 17:13:20;;;;;;;;;;;19.60;94.10;;;;;;5133565;27;19918;-80
2022/10/20 17:15:47;;;;;;;;;;;19.50;94.10;;;;;;5133140;27;19908;-81
2022/10/20 17:18:13;;;;;;;;;;;19.50;94.10;;;;;;5133257;27;19962;-81
2022/10/20 17:20:40;;;;;;;;;;;19.50;94.20;;;;;;5132929;27;19907;-81
2022/10/20 17:23:07;;;;;;;;;;;19.50;94.30;;;;;;5133115;27;20378;-81
2022/10/20 17:25:33;;;;;;;;;;;19.50;94.50;;;;;;5133397;27;19911;-81
2022/10/20 17:28:00;;;;;;;;;;;19.50;94.60;;;;;;5132975;28;19927;-81
2022/10/20 17:30:29;;;;;;;;;;;19.50;94.70;;;;;;5131512;28;19915;-81
2022/10/20 17:32:56;;;;;;;;;;;19.50;94.80;;;;;;5122640;28;20386;-81
2022/10/20 17:35:22;;;;;;;;;;;19.50;94.90;;;;;;5126154;28;19911;-81
2022/10/20 17:37:49;;;;;;;;;;;19.50;95.00;;;;;;5133010;28;19954;-81
2022/10/20 17:40:16;;;;;;;;;;;19.50;95.00;;;;;;5132436;28;19912;-80
2022/10/20 17:42:42;;;;;;;;;;;19.50;95.00;;;;;;5128439;27;19916;-80
2022/10/20 17:45:09;;;;;;;;;;;19.40;95.00;;;;;;5126904;28;19914;-79
2022/10/20 17:47:35;;;;;;;;;;;19.50;95.10;;;;;;5099843;28;19942;-80
2022/10/20 17:50:03;;;;;;;;;;;19.50;95.00;;;;;;5117957;28;19915;-80
2022/10/20 17:52:29;;;;;;;;;;;19.50;95.00;;;;;;5110909;28;19908;-79
2022/10/20 17:54:56;;;;;;;;;;;19.50;95.00;;;;;;5112571;28;19947;-80
2022/10/20 17:57:22;;;;;;;;;;;19.50;94.90;;;;;;5115555;28;19918;-78
2022/10/20 17:59:49;;;;;;;;;;;19.50;94.80;;;;;;5132541;28;19914;-80
2022/10/20 18:02:16;;;;;;;;;;;19.50;94.70;;;;;;5128515;28;19915;-80
2022/10/20 18:04:42;;;;;;;;;;;19.50;94.60;;;;;;5111524;28;19995;-79
2022/10/20 18:07:09;;;;;;;;;;;19.50;94.60;;;;;;5129443;28;19920;-78
2022/10/20 18:09:35;;;;;;;;;;;19.60;94.50;;;;;;5132543;28;20392;-79
2022/10/20 18:12:02;;;;;;;;;;;19.60;94.40;;;;;;5133238;28;19915;-82
2022/10/20 18:14:29;;;;;;;;;;;19.50;94.40;;;;;;5121516;28;20361;-80
2022/10/20 18:16:55;;;;;;;;;;;19.60;94.50;;;;;;5132779;28;20006;-79
2022/10/20 18:19:22;;;;;;;;;;;19.60;94.40;;;;;;5132716;28;19907;-80
2022/10/20 18:21:48;;;;;;;;;;;19.60;94.40;;;;;;5132910;28;19957;-80
2022/10/20 18:24:15;;;;;;;;;;;19.60;94.40;;;;;;5118749;28;19960;-77
2022/10/20 18:26:42;;;;;;;;;;;19.60;94.30;;;;;;5132517;28;20014;-80
2022/10/20 18:29:09;;;;;;;;;;;19.60;94.30;;;;;;5130625;28;19923;-80
2022/10/20 18:31:36;;;;;;;;;;;19.60;94.30;;;;;;5132299;28;20374;-80
2022/10/20 18:34:04;;;;;;;;;;;19.60;94.30;;;;;;5132546;28;20307;-80
2022/10/20 18:36:30;;;;;;;;;;;19.60;94.30;;;;;;5134701;27;19911;-80
2022/10/20 18:38:58;;;;;;;;;;;19.60;94.40;;;;;;5136659;27;20011;-80
2022/10/20 18:41:28;;;;;;;;;;;19.60;94.40;;;;;;5136095;27;19911;-80
2022/10/20 18:43:55;;;;;;;;;;;19.70;94.40;;;;;;5136391;27;19908;-80
2022/10/20 18:46:21;;;;;;;;;;;19.70;94.40;;;;;;5135958;27;20373;-80
2022/10/20 18:48:48;;;;;;;;;;;19.70;94.40;;;;;;5136140;27;19914;-80
2022/10/20 18:51:15;;;;;;;;;;;19.70;94.50;;;;;;5135727;27;19960;-80
2022/10/20 18:53:42;;;;;;;;;;;19.70;94.70;;;;;;5135880;27;19908;-80
2022/10/20 18:56:10;;;;;;;;;;;19.60;94.80;;;;;;5136123;27;20349;-81
2022/10/20 18:58:37;;;;;;;;;;;19.60;94.90;;;;;;5114036;28;20001;-80
2022/10/20 19:01:07;;;;;;;;;;;19.60;95.00;;;;;;5115372;28;19994;-80
2022/10/20 19:03:34;;;;;;;;;;;19.60;95.10;;;;;;5115041;28;19912;-80
2022/10/20 19:06:01;;;;;;;;;;;19.60;95.20;;;;;;5115283;28;19907;-80
2022/10/20 19:08:28;;;;;;;;;;;19.60;95.30;;;;;;5115271;28;19911;-80
2022/10/20 19:10:55;;;;;;;;;;;19.60;95.30;;;;;;5115301;28;20380;-79
2022/10/20 19:13:23;;;;;;;;;;;19.60;95.30;;;;;;5115365;27;19916;-79
2022/10/20 19:15:50;;;;;;;;;;;19.60;95.20;;;;;;5115084;28;19961;-80
2022/10/20 19:18:16;;;;;;;;;;;19.50;95.10;;;;;;5114964;28;20010;-80
2022/10/20 19:20:43;;;;;;;;;;;19.60;95.20;;;;;;5115037;28;20294;-80
2022/10/20 19:23:09;;;;;;;;;;;19.60;95.20;;;;;;5114879;28;19911;-80
2022/10/20 19:25:36;;;;;;;;;;;19.60;95.20;;;;;;5114665;28;20006;-80
2022/10/20 19:28:03;;;;;;;;;;;19.60;95.10;;;;;;5114965;28;19916;-80
2022/10/20 19:30:32;;;;;;;;;;;19.60;95.20;;;;;;5115349;28;19908;-80
2022/10/20 19:32:59;;;;;;;;;;;19.60;95.20;;;;;;5115063;28;19945;-80
2022/10/20 19:35:26;;;;;;;;;;;19.60;95.10;;;;;;5114947;28;19908;-80
2022/10/20 19:37:52;;;;;;;;;;;19.60;95.00;;;;;;5114645;27;19911;-80
2022/10/20 19:40:19;;;;;;;;;;;19.60;94.90;;;;;;5114517;28;19908;-80
2022/10/20 19:42:45;;;;;;;;;;;19.60;94.90;;;;;;5114467;28;20400;-81
2022/10/20 19:45:12;;;;;;;;;;;19.60;94.90;;;;;;5114463;28;19962;-81
2022/10/20 19:47:39;;;;;;;;;;;19.70;95.00;;;;;;5084190;27;19916;-81
2022/10/20 19:50:05;;;;;;;;;;;19.70;95.10;;;;;;5114465;28;19908;-81
2022/10/20 19:52:33;;;;;;;;;;;19.70;94.90;;;;;;5114109;28;19908;-81
2022/10/20 19:55:00;;;;;;;;;;;19.70;94.90;;;;;;5114534;28;19908;-81
2022/10/20 19:57:27;;;;;;;;;;;19.70;94.80;;;;;;5116881;27;20006;-81
2022/10/20 19:59:53;;;;;;;;;;;19.70;94.80;;;;;;5135181;27;19927;-81
2022/10/20 20:02:20;;;;;;;;;;;19.70;94.70;;;;;;5134646;27;19957;-80
2022/10/20 20:04:46;;;;;;;;;;;19.70;94.70;;;;;;5134576;27;20369;-81
2022/10/20 20:07:13;;;;;;;;;;;19.60;94.60;;;;;;5134306;27;19925;-81
2022/10/20 20:09:39;;;;;;;;;;;19.70;94.60;;;;;;5134249;27;20343;-80
2022/10/20 20:12:07;;;;;;;;;;;19.70;94.70;;;;;;5134207;27;19911;-80
2022/10/20 20:14:34;;;;;;;;;;;19.70;94.50;;;;;;5134359;27;20380;-80
2022/10/20 20:17:00;;;;;;;;;;;19.70;94.50;;;;;;5134295;27;19911;-80
2022/10/20 20:19:27;;;;;;;;;;;19.70;94.60;;;;;;5133894;27;19908;-80
2022/10/20 20:21:53;;;;;;;;;;;19.70;94.60;;;;;;5134632;27;19907;-80
2022/10/20 20:24:20;;;;;;;;;;;19.80;94.60;;;;;;5134356;27;20327;-80
2022/10/20 20:26:47;;;;;;;;;;;19.80;94.60;;;;;;5134385;27;19930;-80
2022/10/20 20:29:13;;;;;;;;;;;19.70;94.50;;;;;;5133841;27;19953;-80
2022/10/20 20:31:40;;;;;;;;;;;19.80;94.50;;;;;;5134213;27;19907;-80
2022/10/20 20:34:06;;;;;;;;;;;19.80;94.60;;;;;;5133882;27;19919;-81
2022/10/20 20:36:33;;;;;;;;;;;19.80;94.50;;;;;;5133861;27;20332;-80
2022/10/20 20:39:00;;;;;;;;;;;19.70;94.40;;;;;;5133870;27;19914;-80
2022/10/20 20:41:28;;;;;;;;;;;19.80;94.50;;;;;;5133629;27;19919;-81
2022/10/20 20:43:55;;;;;;;;;;;19.70;94.60;;;;;;5133921;27;19908;-80
2022/10/20 20:46:22;;;;;;;;;;;19.70;94.30;;;;;;5133812;27;19999;-80
2022/10/20 20:48:49;;;;;;;;;;;19.80;94.20;;;;;;5115351;27;20429;-80
2022/10/20 20:51:15;;;;;;;;;;;19.80;94.30;;;;;;5133632;27;20365;-80
2022/10/20 20:53:42;;;;;;;;;;;19.80;94.30;;;;;;5115391;27;20302;-80
2022/10/20 20:56:09;;;;;;;;;;;19.80;94.10;;;;;;5133695;27;19908;-81
2022/10/20 20:58:36;;;;;;;;;;;19.80;94.00;;;;;;5133320;27;19919;-80
2022/10/20 21:01:03;;;;;;;;;;;19.90;93.90;;;;;;5133184;27;19907;-80
2022/10/20 21:03:30;;;;;;;;;;;19.90;94.00;;;;;;5133345;27;19914;-80
2022/10/20 21:05:57;;;;;;;;;;;20.00;94.10;;;;;;5133581;27;19907;-80
2022/10/20 21:08:24;;;;;;;;;;;20.00;94.00;;;;;;5133388;27;19946;-81
2022/10/20 21:10:50;;;;;;;;;;;20.00;93.90;;;;;;5133331;27;19918;-80
2022/10/20 21:13:17;;;;;;;;;;;20.00;93.60;;;;;;5133068;27;19908;-80
2022/10/20 21:15:44;;;;;;;;;;;20.00;93.50;;;;;;5133123;27;20281;-81
2022/10/20 21:18:10;;;;;;;;;;;20.10;93.50;;;;;;5133294;27;19915;-80
2022/10/20 21:20:37;;;;;;;;;;;20.10;93.60;;;;;;5133377;27;19923;-81
2022/10/20 21:23:03;;;;;;;;;;;20.10;93.50;;;;;;5132956;27;20365;-80
2022/10/20 21:25:30;;;;;;;;;;;20.00;93.50;;;;;;5133062;27;19917;-81
2022/10/20 21:27:57;;;;;;;;;;;20.10;93.40;;;;;;5133076;27;20365;-80
2022/10/20 21:30:25;;;;;;;;;;;20.10;93.50;;;;;;5132860;28;19907;-80
2022/10/20 21:32:51;;;;;;;;;;;20.10;93.50;;;;;;5133184;28;19908;-81
2022/10/20 21:35:18;;;;;;;;;;;20.10;93.40;;;;;;5133276;28;19930;-81
2022/10/20 21:37:45;;;;;;;;;;;20.10;93.10;;;;;;5132935;28;19915;-80
2022/10/20 21:40:11;;;;;;;;;;;20.20;93.30;;;;;;5133078;28;20246;-80
2022/10/20 21:42:38;;;;;;;;;;;20.20;93.40;;;;;;5132821;28;20396;-80
2022/10/20 21:45:05;;;;;;;;;;;20.20;93.20;;;;;;5133125;28;19908;-81
2022/10/20 21:47:31;;;;;;;;;;;20.20;93.10;;;;;;5132680;28;19928;-80
2022/10/20 21:49:58;;;;;;;;;;;20.20;92.90;;;;;;5133082;28;19980;-81
2022/10/20 21:52:24;;;;;;;;;;;20.20;93.00;;;;;;5133145;28;19915;-80
2022/10/20 21:54:51;;;;;;;;;;;20.20;92.90;;;;;;5132873;28;19912;-80
2022/10/20 21:57:18;;;;;;;;;;;20.20;92.80;;;;;;5132840;28;20336;-80
2022/10/20 21:59:49;;;;;;;;;;;20.30;92.90;;;;;;5132563;28;19920;-80
2022/10/20 22:02:15;;;;;;;;;;;20.30;92.90;;;;;;5133068;28;19907;-80
2022/10/20 22:04:42;;;;;;;;;;;20.30;92.90;;;;;;5132827;28;19916;-80
2022/10/20 22:07:09;;;;;;;;;;;20.40;93.00;;;;;;5132527;28;20365;-80
2022/10/20 22:09:35;;;;;;;;;;;20.40;92.90;;;;;;5132969;27;19911;-80
2022/10/20 22:12:02;;;;;;;;;;;20.40;92.80;;;;;;5136120;27;19908;-80
2022/10/20 22:14:29;;;;;;;;;;;20.40;92.80;;;;;;5136640;27;19968;-80
2022/10/20 22:16:56;;;;;;;;;;;20.40;92.50;;;;;;5136430;27;19951;-80
2022/10/20 22:19:22;;;;;;;;;;;20.40;92.40;;;;;;5136235;27;19912;-80
2022/10/20 22:21:49;;;;;;;;;;;20.40;92.40;;;;;;5136812;27;20074;-81
2022/10/20 22:24:17;;;;;;;;;;;20.40;92.20;;;;;;5136429;27;19911;-80
2022/10/20 22:26:44;;;;;;;;;;;20.40;92.10;;;;;;5136440;27;20365;-82
2022/10/20 22:29:10;;;;;;;;;;;20.40;92.30;;;;;;5136505;27;20369;-81
2022/10/20 22:31:37;;;;;;;;;;;20.40;92.30;;;;;;5136399;27;19952;-81
2022/10/20 22:34:04;;;;;;;;;;;20.40;92.20;;;;;;5136161;27;20006;-81
2022/10/20 22:36:30;;;;;;;;;;;20.40;92.30;;;;;;5136255;27;20353;-81
2022/10/20 22:38:57;;;;;;;;;;;20.40;92.40;;;;;;5136084;27;19908;-83
2022/10/20 22:41:23;;;;;;;;;;;20.40;92.30;;;;;;5136268;27;20346;-82
2022/10/20 22:43:50;;;;;;;;;;;20.50;92.30;;;;;;5136295;27;19964;-81
2022/10/20 22:46:17;;;;;;;;;;;20.50;92.50;;;;;;5135838;27;20361;-81
2022/10/20 22:48:45;;;;;;;;;;;20.50;92.70;;;;;;5136224;27;19918;-79
2022/10/20 22:51:11;;;;;;;;;;;20.40;93.30;;;;;;5136141;27;19908;-76
2022/10/20 22:53:38;;;;;;;;;;;20.30;93.90;;;;;;5136054;27;20281;-74
2022/10/20 22:56:06;;;;;;;;;;;20.20;94.70;;;;;;5135789;27;20532;-74
2022/10/20 22:58:33;;;;;;;;;;;20.20;95.30;;;;;;5135718;27;20041;-74
2022/10/20 23:00:59;;;;;;;;;;;20.20;95.60;;;;;;5135531;27;19916;-75
2022/10/20 23:03:26;;;;;;;;;;;20.10;95.90;;;;;;5135570;27;19914;-74
2022/10/20 23:05:52;;;;;;;;;;;20.10;96.00;;;;;;5135777;27;19915;-74
2022/10/20 23:08:19;;;;;;;;;;;20.10;96.30;;;;;;5135667;27;20323;-74
2022/10/20 23:10:54;;;;;;;;;;;20.20;96.50;;;;;;5135626;27;19961;-74
2022/10/20 23:13:21;;;;;;;;;;;20.20;96.40;;;;;;5135204;27;20324;-74
2022/10/20 23:15:51;;;;;;;;;;;20.20;96.40;;;;;;5135402;27;19949;-73
2022/10/20 23:18:17;;;;;;;;;;;20.10;96.40;;;;;;5135228;27;19907;-74
2022/10/20 23:20:44;;;;;;;;;;;20.10;96.50;;;;;;5135458;27;20380;-74
2022/10/20 23:23:11;;;;;;;;;;;20.00;96.40;;;;;;5135124;27;19911;-74
2022/10/20 23:25:41;;;;;;;;;;;20.00;96.40;;;;;;5135206;27;20409;-74
2022/10/20 23:28:08;;;;;;;;;;;19.90;96.40;;;;;;5135276;27;19924;-74
2022/10/20 23:30:35;;;;;;;;;;;19.90;96.50;;;;;;5134725;27;20428;-74
2022/10/20 23:33:01;;;;;;;;;;;19.80;96.40;;;;;;5135393;27;19908;-73
2022/10/20 23:35:28;;;;;;;;;;;19.80;96.50;;;;;;5135094;27;19912;-74
2022/10/20 23:37:54;;;;;;;;;;;19.80;96.60;;;;;;5135335;27;20327;-74
2022/10/20 23:40:21;;;;;;;;;;;19.80;96.70;;;;;;5135138;27;19946;-77
2022/10/20 23:42:48;;;;;;;;;;;19.80;96.80;;;;;;5134857;27;19982;-77
2022/10/20 23:45:14;;;;;;;;;;;19.90;96.90;;;;;;5134879;27;20348;-77
2022/10/20 23:47:42;;;;;;;;;;;19.90;96.90;;;;;;5134633;27;20000;-77
2022/10/20 23:50:09;;;;;;;;;;;19.90;96.90;;;;;;5134691;27;19919;-77
2022/10/20 23:52:35;;;;;;;;;;;19.90;97.00;;;;;;5116274;27;19908;-77
2022/10/20 23:55:02;;;;;;;;;;;19.80;96.80;;;;;;5134709;27;20373;-77
2022/10/20 23:57:29;;;;;;;;;;;19.80;97.00;;;;;;5116401;27;20006;-77
2022/10/20 23:59:55;;;;;;;;;;;19.80;97.00;;;;;;5134685;27;19915;-77
